createdAt,value
2019-01-23T00:00:04.786Z,-1.00
2019-01-23T00:02:34.111Z,-0.90
2019-01-23T00:05:22.499Z,-0.90
2019-01-23T00:07:51.826Z,-0.90
2019-01-23T00:10:40.207Z,-0.80
2019-01-23T00:13:09.530Z,-0.90
2019-01-23T00:15:38.855Z,-0.80
2019-01-23T00:18:08.182Z,-0.80
2019-01-23T00:20:37.510Z,-0.80
2019-01-23T00:23:06.874Z,-0.90
2019-01-23T00:25:36.199Z,-1.00
2019-01-23T00:28:05.632Z,-0.90
2019-01-23T00:30:34.958Z,-0.90
2019-01-23T00:33:04.290Z,-0.90
2019-01-23T00:35:33.618Z,-0.90
2019-01-23T00:38:02.943Z,-0.90
2019-01-23T00:40:52.290Z,-1.00
2019-01-23T00:43:21.620Z,-0.90
2019-01-23T00:45:50.945Z,-1.00
2019-01-23T00:48:20.342Z,-1.00
2019-01-23T00:50:49.666Z,-1.00
2019-01-23T00:53:19.003Z,-1.10
2019-01-23T00:55:48.318Z,-0.90
2019-01-23T00:58:17.654Z,-0.90
2019-01-23T01:01:23.579Z,-1.00
2019-01-23T01:03:52.910Z,-1.00
2019-01-23T01:06:41.300Z,-1.00
2019-01-23T01:09:11.291Z,-1.10
2019-01-23T01:11:59.691Z,-1.10
2019-01-23T01:14:29.030Z,-1.10
2019-01-23T01:17:17.407Z,-1.00
2019-01-23T01:20:06.578Z,-1.00
2019-01-23T01:22:35.902Z,-0.90
2019-01-23T01:25:24.279Z,-0.90
2019-01-23T01:27:53.603Z,-0.90
2019-01-23T01:30:23.965Z,-0.90
2019-01-23T01:35:50.901Z,-0.80
2019-01-23T01:38:20.210Z,-0.80
2019-01-23T01:41:08.586Z,-0.80
2019-01-23T01:43:56.958Z,-0.80
2019-01-23T01:46:26.287Z,-0.90
2019-01-23T01:49:14.670Z,-0.90
2019-01-23T01:51:43.997Z,-0.80
2019-01-23T01:54:32.366Z,-0.90
2019-01-23T01:57:20.838Z,-0.80
2019-01-23T02:03:08.199Z,-0.80
2019-01-23T02:05:56.582Z,-0.80
2019-01-23T02:08:25.949Z,-0.80
2019-01-23T02:13:43.678Z,-0.80
2019-01-23T02:16:32.062Z,-0.80
2019-01-23T02:19:01.383Z,-0.80
2019-01-23T02:21:30.702Z,-0.90
2019-01-23T02:24:00.059Z,-0.80
2019-01-23T02:26:48.437Z,-0.80
2019-01-23T02:29:17.758Z,-0.80
2019-01-23T02:31:47.082Z,-0.80
2019-01-23T02:43:31.520Z,-0.80
2019-01-23T02:49:48.692Z,-0.80
2019-01-23T02:52:34.110Z,-0.80
2019-01-23T02:55:03.855Z,-0.80
2019-01-23T02:57:33.187Z,-0.80
2019-01-23T03:00:02.539Z,-0.70
2019-01-23T03:02:51.120Z,-0.70
2019-01-23T03:05:21.476Z,-0.70
2019-01-23T03:07:50.980Z,-0.80
2019-01-23T03:10:21.806Z,-0.80
2019-01-23T03:12:51.136Z,-0.80
2019-01-23T03:15:20.551Z,-0.80
2019-01-23T03:18:08.920Z,-0.80
2019-01-23T03:20:38.231Z,-0.70
2019-01-23T03:23:26.803Z,-0.80
2019-01-23T03:26:15.179Z,-0.80
2019-01-23T03:28:44.503Z,-0.70
2019-01-23T03:31:13.834Z,-0.70
2019-01-23T03:34:02.208Z,-0.70
2019-01-23T03:36:31.542Z,-0.70
2019-01-23T03:39:00.861Z,-0.70
2019-01-23T03:41:30.259Z,-0.70
2019-01-23T03:43:59.583Z,-0.70
2019-01-23T03:46:47.969Z,-0.70
2019-01-23T03:52:22.732Z,-0.70
2019-01-23T03:54:52.054Z,-0.70
2019-01-23T03:57:21.387Z,-0.70
2019-01-23T03:59:50.714Z,-0.60
2019-01-23T04:02:39.094Z,-0.70
2019-01-23T04:05:27.500Z,-0.70
2019-01-23T04:08:15.874Z,-0.70
2019-01-23T04:10:45.209Z,-0.70
2019-01-23T04:13:14.598Z,-0.70
2019-01-23T04:15:44.540Z,-0.70
2019-01-23T04:18:32.994Z,-0.70
2019-01-23T04:42:27.250Z,-0.60
2019-01-23T04:45:16.055Z,-0.70
2019-01-23T04:47:45.458Z,-0.70
2019-01-23T04:50:15.818Z,-0.70
2019-01-23T04:56:05.486Z,-0.70
2019-01-23T05:01:39.783Z,-0.70
2019-01-23T05:04:28.175Z,-0.70
2019-01-23T05:10:02.329Z,-0.60
2019-01-23T05:12:31.719Z,-0.70
2019-01-23T05:15:01.065Z,-0.70
2019-01-23T05:17:49.441Z,-0.70
2019-01-23T05:20:37.894Z,-0.60
2019-01-23T05:23:07.232Z,-0.70
2019-01-23T05:25:36.559Z,-0.80
2019-01-23T05:28:05.886Z,-0.70
2019-01-23T05:30:54.269Z,-0.70
2019-01-23T05:33:23.592Z,-0.80
2019-01-23T05:35:52.918Z,-0.80
2019-01-23T05:38:41.291Z,-0.80
2019-01-23T05:41:10.631Z,-0.70
2019-01-23T05:43:40.032Z,-0.70
2019-01-23T05:46:28.478Z,-0.80
2019-01-23T05:48:57.804Z,-0.70
2019-01-23T05:51:46.203Z,-0.70
2019-01-23T05:54:34.658Z,-0.60
2019-01-23T06:00:02.288Z,-0.60
2019-01-23T06:02:47.610Z,-0.70
2019-01-23T06:14:47.082Z,-0.70
2019-01-23T06:17:35.451Z,-0.80
2019-01-23T06:20:19.801Z,-0.80
2019-01-23T06:26:08.287Z,-0.70
2019-01-23T06:28:37.625Z,-0.70
2019-01-23T06:31:26.083Z,-0.70
2019-01-23T06:34:14.466Z,-0.70
2019-01-23T06:36:59.863Z,-0.70
2019-01-23T06:57:59.800Z,-0.70
2019-01-23T07:00:48.170Z,-0.70
2019-01-23T07:03:36.582Z,-0.80
2019-01-23T07:06:06.014Z,-0.70
2019-01-23T07:08:54.391Z,-0.70
2019-01-23T07:11:42.770Z,-0.70
2019-01-23T07:17:17.535Z,-0.70
2019-01-23T07:28:49.266Z,-0.70
2019-01-23T07:31:16.714Z,-0.70
2019-01-23T07:34:05.086Z,-0.70
2019-01-23T07:36:50.387Z,-0.70
2019-01-23T07:39:19.714Z,-0.70
2019-01-23T07:41:49.048Z,-0.70
2019-01-23T07:44:37.420Z,-0.70
2019-01-23T07:50:12.235Z,-0.70
2019-01-23T07:52:41.566Z,-0.70
2019-01-23T07:55:12.790Z,-0.70
2019-01-23T07:58:01.166Z,-0.70
2019-01-23T08:00:49.542Z,-0.70
2019-01-23T08:09:28.932Z,-0.60
2019-01-23T08:11:58.258Z,-0.60
2019-01-23T08:14:46.631Z,-0.60
2019-01-23T08:20:22.136Z,-0.70
2019-01-23T08:23:10.502Z,-0.60
2019-01-23T08:44:11.089Z,-0.50
2019-01-23T08:46:40.407Z,-0.50
2019-01-23T08:49:09.742Z,-0.50
2019-01-23T08:51:58.122Z,-0.50
2019-01-23T08:54:46.498Z,-0.40
2019-01-23T09:03:26.235Z,-0.40
2019-01-23T09:06:14.612Z,-0.40
2019-01-23T09:09:04.327Z,-0.40
2019-01-23T09:17:44.200Z,-0.30
2019-01-23T09:20:32.570Z,-0.40
2019-01-23T09:23:20.965Z,-0.40
2019-01-23T09:32:41.070Z,-0.20
2019-01-23T09:39:17.346Z,0.00
2019-01-23T09:42:29.204Z,-0.20
2019-01-23T09:45:15.823Z,-0.20
2019-01-23T09:48:02.289Z,-0.10
2019-01-23T09:50:48.780Z,-0.10
2019-01-23T09:53:34.232Z,-0.20
2019-01-23T09:56:03.735Z,-0.20
2019-01-23T09:58:52.119Z,-0.10
2019-01-23T10:26:03.031Z,-0.20
2019-01-23T10:28:51.427Z,-0.20
2019-01-23T10:43:41.515Z,-0.20
2019-01-23T10:46:29.910Z,-0.30
2019-01-23T10:49:18.294Z,-0.10
2019-01-23T10:51:47.643Z,-0.20
2019-01-23T10:54:36.083Z,-0.10
2019-01-23T11:12:25.239Z,-0.20
2019-01-23T11:15:13.926Z,-0.10
2019-01-23T11:18:02.319Z,-0.10
2019-01-23T11:20:31.643Z,-0.20
2019-01-23T11:23:20.022Z,-0.10
2019-01-23T11:25:49.359Z,-0.10
2019-01-23T11:28:37.815Z,-0.10
2019-01-23T11:31:26.208Z,-0.10
2019-01-23T11:55:46.417Z,-0.20
2019-01-23T11:58:34.863Z,-0.30
2019-01-23T12:01:27.482Z,-0.30
2019-01-23T12:10:05.854Z,-0.30
2019-01-23T12:12:54.231Z,-0.40
2019-01-23T12:39:53.299Z,-0.40
2019-01-23T12:42:41.675Z,-0.50
2019-01-23T12:51:21.826Z,-0.50
2019-01-23T13:02:50.381Z,-0.40
2019-01-23T13:05:38.827Z,-0.40
2019-01-23T13:13:43.664Z,-0.10
2019-01-23T13:16:32.042Z,-0.30
2019-01-23T13:19:20.418Z,-0.30
2019-01-23T13:34:24.967Z,-0.50
2019-01-23T13:37:13.338Z,-0.60
2019-01-23T13:40:00.287Z,-0.60
2019-01-23T13:42:46.950Z,-0.60
2019-01-23T13:45:16.391Z,-0.50
2019-01-23T13:48:05.691Z,-0.40
2019-01-23T13:59:38.859Z,-0.50
2019-01-23T14:11:24.482Z,-0.40
2019-01-23T14:14:12.857Z,-0.40
2019-01-23T14:16:42.180Z,-0.40
2019-01-23T14:19:30.569Z,-0.40
2019-01-23T14:21:59.887Z,-0.50
2019-01-23T14:24:29.207Z,-0.50
2019-01-23T14:27:17.655Z,-0.50
2019-01-23T14:29:47.027Z,-0.50
2019-01-23T14:32:16.383Z,-0.50
2019-01-23T14:35:05.303Z,-0.50
2019-01-23T14:38:00.361Z,-0.50
2019-01-23T14:40:24.754Z,-0.50
2019-01-23T14:43:13.131Z,-0.60
2019-01-23T14:45:42.450Z,-0.50
2019-01-23T14:48:30.826Z,-0.50
2019-01-23T14:51:00.150Z,-0.50
2019-01-23T14:54:25.222Z,-0.60
2019-01-23T14:57:13.614Z,-0.60
2019-01-23T15:00:02.067Z,-0.70
2019-01-23T15:02:31.429Z,-0.80
2019-01-23T15:05:19.887Z,-0.90
2019-01-23T15:08:08.262Z,-0.80
2019-01-23T15:29:22.206Z,-1.00
2019-01-23T15:31:51.710Z,-1.00
2019-01-23T15:34:40.077Z,-1.20
2019-01-23T15:37:09.487Z,-1.10
2019-01-23T15:42:43.751Z,-1.30
2019-01-23T15:45:32.128Z,-1.30
2019-01-23T15:48:20.507Z,-1.40
2019-01-23T16:00:21.741Z,-1.70
2019-01-23T16:03:10.198Z,-1.70
2019-01-23T16:08:44.932Z,-1.80
2019-01-23T16:11:33.311Z,-1.80
2019-01-23T16:14:21.695Z,-1.90
2019-01-23T16:26:07.046Z,-2.20
2019-01-23T16:28:55.426Z,-2.30
2019-01-23T16:31:43.807Z,-2.20
2019-01-23T16:34:13.152Z,-2.30
2019-01-23T16:37:01.634Z,-2.30
2019-01-23T16:39:50.106Z,-2.40
2019-01-23T16:45:38.584Z,-2.60
2019-01-23T16:48:26.962Z,-2.60
2019-01-23T16:54:01.107Z,-2.80
2019-01-23T16:56:49.502Z,-2.80
2019-01-23T16:59:18.882Z,-2.90
2019-01-23T17:02:07.255Z,-2.90
2019-01-23T17:04:55.635Z,-2.90
2019-01-23T17:10:30.206Z,-3.10
2019-01-23T17:13:18.610Z,-3.30
2019-01-23T17:22:27.627Z,-3.30
2019-01-23T17:28:02.495Z,-3.30
2019-01-23T17:30:50.879Z,-3.40
2019-01-23T17:33:20.201Z,-3.50
2019-01-23T17:36:08.644Z,-3.60
2019-01-23T17:38:57.019Z,-3.70
2019-01-23T17:41:26.342Z,-3.60
2019-01-23T17:44:14.930Z,-3.60
2019-01-23T18:05:15.426Z,-4.00
2019-01-23T18:07:44.746Z,-4.10
2019-01-23T18:10:14.441Z,-4.20
2019-01-23T18:15:31.926Z,-4.10
2019-01-23T18:18:01.348Z,-4.20
2019-01-23T18:20:30.782Z,-4.10
2019-01-23T18:23:00.200Z,-4.20
2019-01-23T18:25:29.590Z,-4.30
2019-01-23T18:27:58.915Z,-4.30
2019-01-23T18:30:37.591Z,-4.40
2019-01-23T18:33:08.138Z,-4.40
2019-01-23T18:36:19.463Z,-4.40
2019-01-23T18:38:58.138Z,-4.60
2019-01-23T18:42:26.334Z,-4.60
2019-01-23T18:45:20.358Z,-4.60
2019-01-23T18:48:28.851Z,-4.50
2019-01-23T18:51:34.690Z,-4.60
2019-01-23T18:54:04.018Z,-4.30
2019-01-23T18:56:33.363Z,-4.20
2019-01-23T18:59:02.686Z,-4.30
2019-01-23T19:01:32.017Z,-4.20
2019-01-23T19:04:01.347Z,-4.10
2019-01-23T19:06:30.666Z,-4.10
2019-01-23T19:09:00.023Z,-4.10
2019-01-23T19:11:29.391Z,-4.00
2019-01-23T19:13:58.742Z,-4.10
2019-01-23T19:16:47.231Z,-4.30
2019-01-23T19:19:16.556Z,-4.20
2019-01-23T19:21:45.871Z,-4.30
2019-01-23T19:24:15.231Z,-4.30
2019-01-23T19:26:44.572Z,-4.40
2019-01-23T19:29:13.888Z,-4.40
2019-01-23T19:31:43.311Z,-4.40
2019-01-23T19:34:12.674Z,-4.50
2019-01-23T19:40:03.485Z,-4.40
2019-01-23T19:42:48.751Z,-4.30
2019-01-23T19:48:22.626Z,-4.30
2019-01-23T19:51:11.010Z,-4.20
2019-01-23T19:53:40.327Z,-4.30
2019-01-23T19:56:28.696Z,-4.30
2019-01-23T20:45:17.024Z,-3.90
2019-01-23T20:48:06.423Z,-3.90
2019-01-23T20:50:35.746Z,-3.80
2019-01-23T20:56:19.812Z,-3.90
2019-01-23T20:58:49.128Z,-3.80
2019-01-23T21:04:33.552Z,-3.70
2019-01-23T21:07:02.874Z,-3.70
2019-01-23T21:09:51.254Z,-3.90
2019-01-23T21:12:20.579Z,-3.90
2019-01-23T21:14:49.894Z,-3.90
2019-01-23T21:17:38.267Z,-3.90
2019-01-23T21:23:14.271Z,-3.70
2019-01-23T21:25:43.615Z,-3.80
2019-01-23T21:28:31.990Z,-3.80
2019-01-23T21:31:20.363Z,-3.80
2019-01-23T21:40:00.186Z,-3.70
2019-01-23T21:42:29.510Z,-3.60
2019-01-23T21:44:58.845Z,-3.60
2019-01-23T21:47:47.935Z,-3.60
2019-01-23T22:05:43.079Z,-3.90
2019-01-23T22:08:31.454Z,-4.00
2019-01-23T22:41:52.761Z,-4.30
2019-01-23T23:18:19.870Z,-4.50
2019-01-23T23:21:08.243Z,-4.50
2019-01-23T23:23:56.619Z,-4.60
